sensor_id;sensor_type;location;lat;lon;timestamp;P1;durP1;ratioP1;P2;durP2;ratioP2
37997;SDS011;24079;51.824;4.682;2022-10-26T00:02:23;14.73;;;4.93;;
37997;SDS011;24079;51.824;4.682;2022-10-26T00:04:49;10.98;;;5.10;;
37997;SDS011;24079;51.824;4.682;2022-10-26T00:07:14;12.70;;;4.85;;
37997;SDS011;24079;51.824;4.682;2022-10-26T00:09:40;15.30;;;5.13;;
37997;SDS011;24079;51.824;4.682;2022-10-26T00:12:06;11.55;;;4.97;;
37997;SDS011;24079;51.824;4.682;2022-10-26T00:14:31;14.25;;;4.82;;
37997;SDS011;24079;51.824;4.682;2022-10-26T00:16:57;12.73;;;4.68;;
37997;SDS011;24079;51.824;4.682;2022-10-26T00:19:23;14.15;;;4.72;;
37997;SDS011;24079;51.824;4.682;2022-10-26T00:21:49;15.55;;;5.43;;
37997;SDS011;24079;51.824;4.682;2022-10-26T00:24:14;11.57;;;4.95;;
37997;SDS011;24079;51.824;4.682;2022-10-26T00:26:40;11.50;;;5.47;;
37997;SDS011;24079;51.824;4.682;2022-10-26T00:29:06;12.93;;;5.85;;
37997;SDS011;24079;51.824;4.682;2022-10-26T00:31:32;9.82;;;5.40;;
37997;SDS011;24079;51.824;4.682;2022-10-26T00:33:57;21.40;;;6.30;;
37997;SDS011;24079;51.824;4.682;2022-10-26T00:36:23;11.38;;;5.22;;
37997;SDS011;24079;51.824;4.682;2022-10-26T00:38:51;12.23;;;4.47;;
37997;SDS011;24079;51.824;4.682;2022-10-26T00:41:19;12.38;;;5.53;;
37997;SDS011;24079;51.824;4.682;2022-10-26T00:43:49;13.57;;;5.03;;
37997;SDS011;24079;51.824;4.682;2022-10-26T00:46:17;15.23;;;6.22;;
37997;SDS011;24079;51.824;4.682;2022-10-26T00:48:50;13.63;;;5.05;;
37997;SDS011;24079;51.824;4.682;2022-10-26T00:51:22;11.75;;;5.30;;
37997;SDS011;24079;51.824;4.682;2022-10-26T00:53:58;11.15;;;4.78;;
37997;SDS011;24079;51.824;4.682;2022-10-26T00:56:27;12.80;;;5.45;;
37997;SDS011;24079;51.824;4.682;2022-10-26T00:58:54;14.63;;;4.88;;
37997;SDS011;24079;51.824;4.682;2022-10-26T01:01:24;10.73;;;5.30;;
37997;SDS011;24079;51.824;4.682;2022-10-26T01:03:49;12.52;;;5.35;;
37997;SDS011;24079;51.824;4.682;2022-10-26T01:06:18;9.90;;;5.07;;
37997;SDS011;24079;51.824;4.682;2022-10-26T01:08:44;12.88;;;5.60;;
37997;SDS011;24079;51.824;4.682;2022-10-26T01:11:11;10.90;;;4.97;;
37997;SDS011;24079;51.824;4.682;2022-10-26T01:13:37;14.43;;;6.10;;
37997;SDS011;24079;51.824;4.682;2022-10-26T01:16:20;15.45;;;5.63;;
37997;SDS011;24079;51.824;4.682;2022-10-26T01:22:20;15.75;;;5.47;;
37997;SDS011;24079;51.824;4.682;2022-10-26T01:27:46;9.95;;;5.00;;
37997;SDS011;24079;51.824;4.682;2022-10-26T01:32:45;13.25;;;5.13;;
37997;SDS011;24079;51.824;4.682;2022-10-26T01:35:17;13.60;;;5.47;;
37997;SDS011;24079;51.824;4.682;2022-10-26T01:38:13;11.63;;;5.38;;
37997;SDS011;24079;51.824;4.682;2022-10-26T01:40:46;13.47;;;4.90;;
37997;SDS011;24079;51.824;4.682;2022-10-26T01:43:18;11.35;;;5.10;;
37997;SDS011;24079;51.824;4.682;2022-10-26T01:45:45;12.23;;;4.80;;
37997;SDS011;24079;51.824;4.682;2022-10-26T01:48:12;9.45;;;4.80;;
37997;SDS011;24079;51.824;4.682;2022-10-26T01:50:41;15.45;;;5.25;;
37997;SDS011;24079;51.824;4.682;2022-10-26T01:53:12;14.55;;;5.30;;
37997;SDS011;24079;51.824;4.682;2022-10-26T02:00:58;13.07;;;5.32;;
37997;SDS011;24079;51.824;4.682;2022-10-26T02:04:09;13.07;;;5.25;;
37997;SDS011;24079;51.824;4.682;2022-10-26T02:07:44;14.70;;;5.53;;
37997;SDS011;24079;51.824;4.682;2022-10-26T02:12:58;12.05;;;5.43;;
37997;SDS011;24079;51.824;4.682;2022-10-26T02:15:39;15.27;;;5.03;;
37997;SDS011;24079;51.824;4.682;2022-10-26T02:21:02;10.23;;;4.78;;
37997;SDS011;24079;51.824;4.682;2022-10-26T02:23:31;13.80;;;4.82;;
37997;SDS011;24079;51.824;4.682;2022-10-26T02:25:59;11.10;;;5.22;;
37997;SDS011;24079;51.824;4.682;2022-10-26T02:28:28;9.90;;;4.93;;
37997;SDS011;24079;51.824;4.682;2022-10-26T02:30:58;10.30;;;5.43;;
37997;SDS011;24079;51.824;4.682;2022-10-26T02:33:27;15.98;;;6.05;;
37997;SDS011;24079;51.824;4.682;2022-10-26T02:35:56;15.70;;;5.72;;
37997;SDS011;24079;51.824;4.682;2022-10-26T02:38:24;13.55;;;5.45;;
37997;SDS011;24079;51.824;4.682;2022-10-26T02:40:52;12.65;;;6.00;;
37997;SDS011;24079;51.824;4.682;2022-10-26T02:43:20;12.75;;;4.65;;
37997;SDS011;24079;51.824;4.682;2022-10-26T02:45:52;16.10;;;5.35;;
37997;SDS011;24079;51.824;4.682;2022-10-26T02:48:23;12.05;;;5.22;;
37997;SDS011;24079;51.824;4.682;2022-10-26T02:50:56;10.68;;;5.25;;
37997;SDS011;24079;51.824;4.682;2022-10-26T02:56:16;13.70;;;5.30;;
37997;SDS011;24079;51.824;4.682;2022-10-26T02:58:48;10.93;;;4.70;;
37997;SDS011;24079;51.824;4.682;2022-10-26T03:01:18;14.93;;;5.00;;
37997;SDS011;24079;51.824;4.682;2022-10-26T03:03:45;11.77;;;5.38;;
37997;SDS011;24079;51.824;4.682;2022-10-26T03:06:11;10.38;;;5.03;;
37997;SDS011;24079;51.824;4.682;2022-10-26T03:08:37;11.48;;;5.40;;
37997;SDS011;24079;51.824;4.682;2022-10-26T03:11:02;9.07;;;5.18;;
37997;SDS011;24079;51.824;4.682;2022-10-26T03:13:28;10.05;;;4.95;;
37997;SDS011;24079;51.824;4.682;2022-10-26T03:15:54;14.80;;;5.20;;
37997;SDS011;24079;51.824;4.682;2022-10-26T03:18:21;11.90;;;4.82;;
37997;SDS011;24079;51.824;4.682;2022-10-26T03:20:47;15.00;;;5.57;;
37997;SDS011;24079;51.824;4.682;2022-10-26T03:23:12;13.13;;;4.97;;
37997;SDS011;24079;51.824;4.682;2022-10-26T03:25:38;11.70;;;4.90;;
37997;SDS011;24079;51.824;4.682;2022-10-26T03:28:04;14.18;;;5.00;;
37997;SDS011;24079;51.824;4.682;2022-10-26T03:30:30;9.85;;;5.15;;
37997;SDS011;24079;51.824;4.682;2022-10-26T03:32:55;11.70;;;4.82;;
37997;SDS011;24079;51.824;4.682;2022-10-26T03:35:22;15.98;;;5.10;;
37997;SDS011;24079;51.824;4.682;2022-10-26T03:37:47;13.32;;;5.15;;
37997;SDS011;24079;51.824;4.682;2022-10-26T03:40:13;11.32;;;5.03;;
37997;SDS011;24079;51.824;4.682;2022-10-26T03:42:39;8.10;;;4.55;;
37997;SDS011;24079;51.824;4.682;2022-10-26T03:45:05;12.43;;;4.85;;
37997;SDS011;24079;51.824;4.682;2022-10-26T03:47:32;13.27;;;5.78;;
37997;SDS011;24079;51.824;4.682;2022-10-26T03:49:58;9.23;;;4.68;;
37997;SDS011;24079;51.824;4.682;2022-10-26T03:52:24;9.45;;;5.20;;
37997;SDS011;24079;51.824;4.682;2022-10-26T03:54:50;11.45;;;5.00;;
37997;SDS011;24079;51.824;4.682;2022-10-26T03:57:15;11.05;;;4.60;;
37997;SDS011;24079;51.824;4.682;2022-10-26T03:59:41;10.38;;;4.93;;
37997;SDS011;24079;51.824;4.682;2022-10-26T04:02:07;12.70;;;4.95;;
37997;SDS011;24079;51.824;4.682;2022-10-26T04:04:33;20.02;;;5.07;;
37997;SDS011;24079;51.824;4.682;2022-10-26T04:06:58;9.60;;;5.18;;
37997;SDS011;24079;51.824;4.682;2022-10-26T04:09:24;12.88;;;5.10;;
37997;SDS011;24079;51.824;4.682;2022-10-26T04:11:49;11.90;;;5.32;;
37997;SDS011;24079;51.824;4.682;2022-10-26T04:14:15;10.93;;;4.68;;
37997;SDS011;24079;51.824;4.682;2022-10-26T04:16:40;13.55;;;4.40;;
37997;SDS011;24079;51.824;4.682;2022-10-26T04:19:06;16.42;;;4.95;;
37997;SDS011;24079;51.824;4.682;2022-10-26T04:21:32;12.77;;;5.20;;
37997;SDS011;24079;51.824;4.682;2022-10-26T04:23:57;12.52;;;5.63;;
37997;SDS011;24079;51.824;4.682;2022-10-26T04:26:23;13.43;;;5.00;;
37997;SDS011;24079;51.824;4.682;2022-10-26T04:28:49;11.93;;;4.75;;
37997;SDS011;24079;51.824;4.682;2022-10-26T04:31:14;7.75;;;4.68;;
37997;SDS011;24079;51.824;4.682;2022-10-26T04:33:40;14.18;;;5.18;;
37997;SDS011;24079;51.824;4.682;2022-10-26T04:36:06;15.05;;;5.70;;
37997;SDS011;24079;51.824;4.682;2022-10-26T04:38:32;11.73;;;5.07;;
37997;SDS011;24079;51.824;4.682;2022-10-26T04:40:57;15.23;;;5.00;;
37997;SDS011;24079;51.824;4.682;2022-10-26T04:43:23;14.27;;;5.38;;
37997;SDS011;24079;51.824;4.682;2022-10-26T04:45:48;13.23;;;5.07;;
37997;SDS011;24079;51.824;4.682;2022-10-26T04:48:14;11.82;;;4.63;;
37997;SDS011;24079;51.824;4.682;2022-10-26T04:50:40;11.68;;;5.15;;
37997;SDS011;24079;51.824;4.682;2022-10-26T04:53:06;13.48;;;5.25;;
37997;SDS011;24079;51.824;4.682;2022-10-26T04:55:33;16.23;;;5.43;;
37997;SDS011;24079;51.824;4.682;2022-10-26T04:57:59;10.27;;;4.75;;
37997;SDS011;24079;51.824;4.682;2022-10-26T05:00:24;14.60;;;5.05;;
37997;SDS011;24079;51.824;4.682;2022-10-26T05:02:51;10.23;;;4.22;;
37997;SDS011;24079;51.824;4.682;2022-10-26T05:05:22;11.40;;;4.95;;
37997;SDS011;24079;51.824;4.682;2022-10-26T05:07:52;17.55;;;5.47;;
37997;SDS011;24079;51.824;4.682;2022-10-26T05:10:19;12.82;;;5.03;;
37997;SDS011;24079;51.824;4.682;2022-10-26T05:12:49;14.00;;;4.63;;
37997;SDS011;24079;51.824;4.682;2022-10-26T05:15:16;11.27;;;5.13;;
37997;SDS011;24079;51.824;4.682;2022-10-26T05:17:41;11.25;;;4.78;;
37997;SDS011;24079;51.824;4.682;2022-10-26T05:20:07;8.85;;;4.20;;
37997;SDS011;24079;51.824;4.682;2022-10-26T05:22:37;9.27;;;4.38;;
37997;SDS011;24079;51.824;4.682;2022-10-26T05:25:02;10.60;;;4.60;;
37997;SDS011;24079;51.824;4.682;2022-10-26T05:27:28;12.75;;;4.78;;
37997;SDS011;24079;51.824;4.682;2022-10-26T05:29:54;11.15;;;4.22;;
37997;SDS011;24079;51.824;4.682;2022-10-26T05:32:19;10.23;;;4.80;;
37997;SDS011;24079;51.824;4.682;2022-10-26T05:34:45;9.13;;;4.40;;
37997;SDS011;24079;51.824;4.682;2022-10-26T05:37:11;14.93;;;3.95;;
37997;SDS011;24079;51.824;4.682;2022-10-26T05:39:36;12.32;;;4.18;;
37997;SDS011;24079;51.824;4.682;2022-10-26T05:42:02;9.48;;;3.80;;
37997;SDS011;24079;51.824;4.682;2022-10-26T05:44:27;9.07;;;4.03;;
37997;SDS011;24079;51.824;4.682;2022-10-26T05:46:53;12.48;;;4.28;;
37997;SDS011;24079;51.824;4.682;2022-10-26T05:49:18;13.52;;;4.57;;
37997;SDS011;24079;51.824;4.682;2022-10-26T05:51:44;9.32;;;3.75;;
37997;SDS011;24079;51.824;4.682;2022-10-26T05:54:09;12.88;;;4.72;;
37997;SDS011;24079;51.824;4.682;2022-10-26T05:56:36;11.23;;;4.03;;
37997;SDS011;24079;51.824;4.682;2022-10-26T05:59:04;8.48;;;3.65;;
37997;SDS011;24079;51.824;4.682;2022-10-26T06:04:36;8.77;;;3.40;;
37997;SDS011;24079;51.824;4.682;2022-10-26T06:07:20;9.77;;;3.63;;
37997;SDS011;24079;51.824;4.682;2022-10-26T06:09:46;12.63;;;3.40;;
37997;SDS011;24079;51.824;4.682;2022-10-26T06:12:12;12.50;;;3.42;;
37997;SDS011;24079;51.824;4.682;2022-10-26T06:14:39;10.55;;;3.72;;
37997;SDS011;24079;51.824;4.682;2022-10-26T06:28:25;11.23;;;3.65;;
37997;SDS011;24079;51.824;4.682;2022-10-26T06:31:09;7.38;;;3.67;;
37997;SDS011;24079;51.824;4.682;2022-10-26T06:33:36;10.05;;;3.50;;
37997;SDS011;24079;51.824;4.682;2022-10-26T06:38:48;11.50;;;3.92;;
37997;SDS011;24079;51.824;4.682;2022-10-26T06:41:18;10.15;;;3.20;;
37997;SDS011;24079;51.824;4.682;2022-10-26T06:43:44;6.95;;;2.95;;
37997;SDS011;24079;51.824;4.682;2022-10-26T06:51:35;5.88;;;3.15;;
37997;SDS011;24079;51.824;4.682;2022-10-26T06:54:12;10.68;;;3.05;;
37997;SDS011;24079;51.824;4.682;2022-10-26T06:56:44;9.10;;;2.95;;
37997;SDS011;24079;51.824;4.682;2022-10-26T06:59:28;9.45;;;3.25;;
37997;SDS011;24079;51.824;4.682;2022-10-26T07:01:59;8.10;;;3.28;;
37997;SDS011;24079;51.824;4.682;2022-10-26T07:04:24;8.82;;;2.80;;
37997;SDS011;24079;51.824;4.682;2022-10-26T07:06:50;12.45;;;3.03;;
37997;SDS011;24079;51.824;4.682;2022-10-26T07:09:15;11.80;;;3.45;;
37997;SDS011;24079;51.824;4.682;2022-10-26T07:11:41;9.43;;;3.15;;
37997;SDS011;24079;51.824;4.682;2022-10-26T07:14:06;9.13;;;3.38;;
37997;SDS011;24079;51.824;4.682;2022-10-26T07:16:32;7.80;;;3.00;;
37997;SDS011;24079;51.824;4.682;2022-10-26T07:18:58;5.35;;;2.85;;
37997;SDS011;24079;51.824;4.682;2022-10-26T07:21:23;6.43;;;3.33;;
37997;SDS011;24079;51.824;4.682;2022-10-26T07:23:49;6.93;;;2.90;;
37997;SDS011;24079;51.824;4.682;2022-10-26T07:26:16;7.55;;;2.72;;
37997;SDS011;24079;51.824;4.682;2022-10-26T07:28:42;10.23;;;3.55;;
37997;SDS011;24079;51.824;4.682;2022-10-26T07:31:07;9.45;;;3.38;;
37997;SDS011;24079;51.824;4.682;2022-10-26T07:33:34;6.05;;;2.80;;
37997;SDS011;24079;51.824;4.682;2022-10-26T07:35:59;9.55;;;3.55;;
37997;SDS011;24079;51.824;4.682;2022-10-26T07:38:25;7.35;;;3.03;;
37997;SDS011;24079;51.824;4.682;2022-10-26T07:40:50;13.95;;;4.00;;
37997;SDS011;24079;51.824;4.682;2022-10-26T07:43:18;11.65;;;3.25;;
37997;SDS011;24079;51.824;4.682;2022-10-26T07:45:47;9.40;;;3.05;;
37997;SDS011;24079;51.824;4.682;2022-10-26T07:48:14;7.25;;;3.42;;
37997;SDS011;24079;51.824;4.682;2022-10-26T07:50:39;14.25;;;3.53;;
37997;SDS011;24079;51.824;4.682;2022-10-26T07:53:05;7.90;;;3.83;;
37997;SDS011;24079;51.824;4.682;2022-10-26T07:55:30;13.38;;;3.45;;
37997;SDS011;24079;51.824;4.682;2022-10-26T07:57:57;11.15;;;3.60;;
37997;SDS011;24079;51.824;4.682;2022-10-26T08:00:23;9.20;;;3.55;;
37997;SDS011;24079;51.824;4.682;2022-10-26T08:02:49;11.65;;;3.70;;
37997;SDS011;24079;51.824;4.682;2022-10-26T08:05:15;10.77;;;3.17;;
37997;SDS011;24079;51.824;4.682;2022-10-26T08:07:42;10.70;;;3.13;;
37997;SDS011;24079;51.824;4.682;2022-10-26T08:10:08;7.57;;;3.10;;
37997;SDS011;24079;51.824;4.682;2022-10-26T08:12:34;11.52;;;3.72;;
37997;SDS011;24079;51.824;4.682;2022-10-26T08:15:00;7.57;;;3.38;;
37997;SDS011;24079;51.824;4.682;2022-10-26T08:17:25;9.77;;;2.90;;
37997;SDS011;24079;51.824;4.682;2022-10-26T08:19:52;6.50;;;3.10;;
37997;SDS011;24079;51.824;4.682;2022-10-26T08:22:18;13.75;;;3.08;;
37997;SDS011;24079;51.824;4.682;2022-10-26T08:24:43;5.25;;;2.80;;
37997;SDS011;24079;51.824;4.682;2022-10-26T08:27:11;9.85;;;3.00;;
37997;SDS011;24079;51.824;4.682;2022-10-26T08:29:39;8.52;;;2.97;;
37997;SDS011;24079;51.824;4.682;2022-10-26T08:32:05;8.65;;;3.20;;
37997;SDS011;24079;51.824;4.682;2022-10-26T08:34:31;8.23;;;3.33;;
37997;SDS011;24079;51.824;4.682;2022-10-26T08:36:56;11.60;;;3.25;;
37997;SDS011;24079;51.824;4.682;2022-10-26T08:39:22;7.72;;;3.35;;
37997;SDS011;24079;51.824;4.682;2022-10-26T08:41:48;12.27;;;3.30;;
37997;SDS011;24079;51.824;4.682;2022-10-26T08:47:24;9.23;;;2.97;;
37997;SDS011;24079;51.824;4.682;2022-10-26T08:49:58;11.18;;;3.33;;
37997;SDS011;24079;51.824;4.682;2022-10-26T08:52:42;5.30;;;2.60;;
37997;SDS011;24079;51.824;4.682;2022-10-26T08:55:18;9.77;;;2.88;;
37997;SDS011;24079;51.824;4.682;2022-10-26T08:57:47;10.60;;;3.05;;
37997;SDS011;24079;51.824;4.682;2022-10-26T09:00:14;8.88;;;3.05;;
37997;SDS011;24079;51.824;4.682;2022-10-26T09:02:49;11.52;;;3.28;;
37997;SDS011;24079;51.824;4.682;2022-10-26T09:05:16;10.60;;;3.30;;
37997;SDS011;24079;51.824;4.682;2022-10-26T09:07:56;11.82;;;3.40;;
37997;SDS011;24079;51.824;4.682;2022-10-26T09:10:38;13.27;;;4.30;;
37997;SDS011;24079;51.824;4.682;2022-10-26T09:13:27;13.32;;;3.50;;
37997;SDS011;24079;51.824;4.682;2022-10-26T09:21:18;10.88;;;3.60;;
37997;SDS011;24079;51.824;4.682;2022-10-26T09:24:05;11.40;;;3.22;;
37997;SDS011;24079;51.824;4.682;2022-10-26T09:27:40;13.90;;;3.40;;
37997;SDS011;24079;51.824;4.682;2022-10-26T09:29:35;9.57;;;3.22;;
37997;SDS011;24079;51.824;4.682;2022-10-26T09:32:05;7.37;;;3.10;;
37997;SDS011;24079;51.824;4.682;2022-10-26T09:34:46;11.23;;;3.40;;
37997;SDS011;24079;51.824;4.682;2022-10-26T09:37:28;17.30;;;3.22;;
37997;SDS011;24079;51.824;4.682;2022-10-26T09:40:03;9.63;;;3.38;;
37997;SDS011;24079;51.824;4.682;2022-10-26T09:47:48;9.07;;;3.10;;
37997;SDS011;24079;51.824;4.682;2022-10-26T09:52:51;13.30;;;3.30;;
37997;SDS011;24079;51.824;4.682;2022-10-26T09:55:17;12.50;;;3.50;;
37997;SDS011;24079;51.824;4.682;2022-10-26T09:57:44;13.48;;;3.75;;
37997;SDS011;24079;51.824;4.682;2022-10-26T10:00:13;13.50;;;2.80;;
37997;SDS011;24079;51.824;4.682;2022-10-26T10:02:41;9.02;;;2.90;;
37997;SDS011;24079;51.824;4.682;2022-10-26T10:08:09;8.90;;;3.40;;
37997;SDS011;24079;51.824;4.682;2022-10-26T10:10:56;8.07;;;3.55;;
37997;SDS011;24079;51.824;4.682;2022-10-26T10:13:34;9.13;;;3.00;;
37997;SDS011;24079;51.824;4.682;2022-10-26T10:16:20;7.72;;;2.97;;
37997;SDS011;24079;51.824;4.682;2022-10-26T10:18:55;9.48;;;3.38;;
37997;SDS011;24079;51.824;4.682;2022-10-26T10:21:32;8.57;;;3.38;;
37997;SDS011;24079;51.824;4.682;2022-10-26T10:23:58;11.25;;;3.28;;
37997;SDS011;24079;51.824;4.682;2022-10-26T10:26:24;7.70;;;3.47;;
37997;SDS011;24079;51.824;4.682;2022-10-26T10:28:57;9.85;;;3.28;;
37997;SDS011;24079;51.824;4.682;2022-10-26T10:31:28;8.93;;;3.08;;
37997;SDS011;24079;51.824;4.682;2022-10-26T10:33:55;9.57;;;3.65;;
37997;SDS011;24079;51.824;4.682;2022-10-26T10:36:21;8.43;;;3.35;;
37997;SDS011;24079;51.824;4.682;2022-10-26T10:38:50;10.77;;;3.55;;
37997;SDS011;24079;51.824;4.682;2022-10-26T10:41:18;13.75;;;3.35;;
37997;SDS011;24079;51.824;4.682;2022-10-26T10:43:52;12.88;;;3.80;;
37997;SDS011;24079;51.824;4.682;2022-10-26T10:46:31;14.98;;;3.63;;
37997;SDS011;24079;51.824;4.682;2022-10-26T10:49:05;9.60;;;4.00;;
37997;SDS011;24079;51.824;4.682;2022-10-26T10:51:44;13.45;;;3.15;;
37997;SDS011;24079;51.824;4.682;2022-10-26T10:54:17;10.23;;;3.25;;
37997;SDS011;24079;51.824;4.682;2022-10-26T10:56:56;9.57;;;3.15;;
37997;SDS011;24079;51.824;4.682;2022-10-26T10:59:50;8.30;;;2.85;;
37997;SDS011;24079;51.824;4.682;2022-10-26T11:08:02;7.38;;;2.47;;
37997;SDS011;24079;51.824;4.682;2022-10-26T11:14:19;8.70;;;3.20;;
37997;SDS011;24079;51.824;4.682;2022-10-26T11:16:26;11.63;;;3.33;;
37997;SDS011;24079;51.824;4.682;2022-10-26T11:19:03;15.02;;;3.10;;
37997;SDS011;24079;51.824;4.682;2022-10-26T11:21:53;8.18;;;2.72;;
37997;SDS011;24079;51.824;4.682;2022-10-26T11:24:30;13.15;;;2.78;;
37997;SDS011;24079;51.824;4.682;2022-10-26T11:27:19;9.35;;;3.13;;
37997;SDS011;24079;51.824;4.682;2022-10-26T11:29:57;9.73;;;3.20;;
37997;SDS011;24079;51.824;4.682;2022-10-26T11:33:06;7.78;;;3.00;;
37997;SDS011;24079;51.824;4.682;2022-10-26T11:35:51;11.90;;;3.15;;
37997;SDS011;24079;51.824;4.682;2022-10-26T11:46:04;8.05;;;3.20;;
37997;SDS011;24079;51.824;4.682;2022-10-26T11:48:39;9.48;;;3.15;;
37997;SDS011;24079;51.824;4.682;2022-10-26T11:51:30;12.50;;;3.30;;
37997;SDS011;24079;51.824;4.682;2022-10-26T11:53:57;15.68;;;3.03;;
37997;SDS011;24079;51.824;4.682;2022-10-26T11:56:31;12.75;;;3.75;;
37997;SDS011;24079;51.824;4.682;2022-10-26T11:59:02;6.50;;;2.72;;
37997;SDS011;24079;51.824;4.682;2022-10-26T12:01:29;13.07;;;2.97;;
37997;SDS011;24079;51.824;4.682;2022-10-26T12:03:57;10.05;;;2.72;;
37997;SDS011;24079;51.824;4.682;2022-10-26T12:06:27;7.90;;;2.90;;
37997;SDS011;24079;51.824;4.682;2022-10-26T12:09:07;11.32;;;3.22;;
37997;SDS011;24079;51.824;4.682;2022-10-26T12:11:40;11.83;;;3.00;;
37997;SDS011;24079;51.824;4.682;2022-10-26T12:14:20;9.30;;;2.72;;
37997;SDS011;24079;51.824;4.682;2022-10-26T12:19:43;11.63;;;3.03;;
37997;SDS011;24079;51.824;4.682;2022-10-26T12:22:16;12.00;;;3.25;;
37997;SDS011;24079;51.824;4.682;2022-10-26T12:24:43;10.75;;;3.10;;
37997;SDS011;24079;51.824;4.682;2022-10-26T12:37:55;10.65;;;2.97;;
37997;SDS011;24079;51.824;4.682;2022-10-26T12:40:39;8.70;;;2.47;;
37997;SDS011;24079;51.824;4.682;2022-10-26T12:45:38;15.85;;;3.47;;
37997;SDS011;24079;51.824;4.682;2022-10-26T12:48:21;11.90;;;3.55;;
37997;SDS011;24079;51.824;4.682;2022-10-26T12:50:51;16.25;;;2.85;;
37997;SDS011;24079;51.824;4.682;2022-10-26T12:53:18;10.07;;;2.90;;
37997;SDS011;24079;51.824;4.682;2022-10-26T13:01:14;7.80;;;2.30;;
37997;SDS011;24079;51.824;4.682;2022-10-26T13:03:56;8.68;;;2.50;;
37997;SDS011;24079;51.824;4.682;2022-10-26T13:09:16;8.73;;;2.70;;
37997;SDS011;24079;51.824;4.682;2022-10-26T13:11:47;5.95;;;1.98;;
37997;SDS011;24079;51.824;4.682;2022-10-26T13:16:45;9.90;;;2.25;;
37997;SDS011;24079;51.824;4.682;2022-10-26T13:19:21;9.35;;;2.70;;
37997;SDS011;24079;51.824;4.682;2022-10-26T13:21:48;11.00;;;2.30;;
37997;SDS011;24079;51.824;4.682;2022-10-26T13:24:14;12.90;;;2.58;;
37997;SDS011;24079;51.824;4.682;2022-10-26T13:27:20;13.20;;;2.50;;
37997;SDS011;24079;51.824;4.682;2022-10-26T13:32:29;9.85;;;2.53;;
37997;SDS011;24079;51.824;4.682;2022-10-26T13:34:57;12.35;;;2.80;;
37997;SDS011;24079;51.824;4.682;2022-10-26T13:37:26;8.15;;;2.10;;
37997;SDS011;24079;51.824;4.682;2022-10-26T13:39:54;8.75;;;2.00;;
37997;SDS011;24079;51.824;4.682;2022-10-26T13:42:22;10.95;;;2.58;;
37997;SDS011;24079;51.824;4.682;2022-10-26T13:45:02;11.70;;;2.53;;
37997;SDS011;24079;51.824;4.682;2022-10-26T13:50:21;10.57;;;2.10;;
37997;SDS011;24079;51.824;4.682;2022-10-26T13:52:50;10.77;;;2.00;;
37997;SDS011;24079;51.824;4.682;2022-10-26T13:55:22;8.88;;;2.03;;
37997;SDS011;24079;51.824;4.682;2022-10-26T13:57:59;8.32;;;2.08;;
37997;SDS011;24079;51.824;4.682;2022-10-26T14:03:42;7.20;;;2.20;;
37997;SDS011;24079;51.824;4.682;2022-10-26T14:08:53;7.82;;;2.13;;
37997;SDS011;24079;51.824;4.682;2022-10-26T14:11:24;5.85;;;2.10;;
37997;SDS011;24079;51.824;4.682;2022-10-26T14:13:55;7.07;;;2.13;;
37997;SDS011;24079;51.824;4.682;2022-10-26T14:16:21;11.32;;;2.22;;
37997;SDS011;24079;51.824;4.682;2022-10-26T14:18:51;13.93;;;2.30;;
37997;SDS011;24079;51.824;4.682;2022-10-26T14:21:20;8.45;;;2.15;;
37997;SDS011;24079;51.824;4.682;2022-10-26T14:23:48;6.65;;;1.90;;
37997;SDS011;24079;51.824;4.682;2022-10-26T14:26:20;14.13;;;2.22;;
37997;SDS011;24079;51.824;4.682;2022-10-26T14:28:54;10.48;;;2.00;;
37997;SDS011;24079;51.824;4.682;2022-10-26T14:31:23;12.18;;;2.13;;
37997;SDS011;24079;51.824;4.682;2022-10-26T14:33:52;8.13;;;2.10;;
37997;SDS011;24079;51.824;4.682;2022-10-26T14:36:20;11.88;;;2.20;;
37997;SDS011;24079;51.824;4.682;2022-10-26T14:38:51;7.30;;;2.47;;
37997;SDS011;24079;51.824;4.682;2022-10-26T14:41:21;7.07;;;2.33;;
37997;SDS011;24079;51.824;4.682;2022-10-26T14:43:48;7.97;;;2.67;;
37997;SDS011;24079;51.824;4.682;2022-10-26T14:46:14;9.32;;;2.10;;
37997;SDS011;24079;51.824;4.682;2022-10-26T14:48:51;15.25;;;2.25;;
37997;SDS011;24079;51.824;4.682;2022-10-26T14:51:26;8.45;;;2.17;;
37997;SDS011;24079;51.824;4.682;2022-10-26T14:53:55;15.30;;;2.80;;
37997;SDS011;24079;51.824;4.682;2022-10-26T14:56:27;10.02;;;2.58;;
37997;SDS011;24079;51.824;4.682;2022-10-26T14:59:08;8.27;;;2.03;;
37997;SDS011;24079;51.824;4.682;2022-10-26T15:01:48;21.65;;;3.05;;
37997;SDS011;24079;51.824;4.682;2022-10-26T15:04:36;13.32;;;2.30;;
37997;SDS011;24079;51.824;4.682;2022-10-26T15:12:05;9.02;;;2.47;;
37997;SDS011;24079;51.824;4.682;2022-10-26T15:14:32;11.05;;;2.40;;
37997;SDS011;24079;51.824;4.682;2022-10-26T15:16:58;12.13;;;2.55;;
37997;SDS011;24079;51.824;4.682;2022-10-26T15:19:24;8.48;;;2.30;;
37997;SDS011;24079;51.824;4.682;2022-10-26T15:21:51;9.88;;;2.42;;
37997;SDS011;24079;51.824;4.682;2022-10-26T15:24:36;18.90;;;2.97;;
37997;SDS011;24079;51.824;4.682;2022-10-26T15:27:03;13.38;;;2.67;;
37997;SDS011;24079;51.824;4.682;2022-10-26T15:29:37;15.02;;;2.65;;
37997;SDS011;24079;51.824;4.682;2022-10-26T15:32:17;9.65;;;2.28;;
37997;SDS011;24079;51.824;4.682;2022-10-26T15:34:47;14.27;;;2.55;;
37997;SDS011;24079;51.824;4.682;2022-10-26T15:37:32;19.00;;;2.90;;
37997;SDS011;24079;51.824;4.682;2022-10-26T15:39:58;12.48;;;2.38;;
37997;SDS011;24079;51.824;4.682;2022-10-26T15:42:24;14.68;;;2.25;;
37997;SDS011;24079;51.824;4.682;2022-10-26T15:44:51;8.82;;;1.90;;
37997;SDS011;24079;51.824;4.682;2022-10-26T15:47:17;9.27;;;1.88;;
37997;SDS011;24079;51.824;4.682;2022-10-26T15:49:44;11.07;;;2.35;;
37997;SDS011;24079;51.824;4.682;2022-10-26T15:52:10;9.50;;;2.38;;
37997;SDS011;24079;51.824;4.682;2022-10-26T15:54:35;6.22;;;2.17;;
37997;SDS011;24079;51.824;4.682;2022-10-26T15:57:01;5.93;;;2.28;;
37997;SDS011;24079;51.824;4.682;2022-10-26T15:59:27;7.88;;;1.92;;
37997;SDS011;24079;51.824;4.682;2022-10-26T16:01:53;9.73;;;2.05;;
37997;SDS011;24079;51.824;4.682;2022-10-26T16:04:18;13.45;;;2.40;;
37997;SDS011;24079;51.824;4.682;2022-10-26T16:06:44;11.88;;;2.35;;
37997;SDS011;24079;51.824;4.682;2022-10-26T16:09:12;6.97;;;2.00;;
37997;SDS011;24079;51.824;4.682;2022-10-26T16:11:40;12.27;;;1.98;;
37997;SDS011;24079;51.824;4.682;2022-10-26T16:14:06;7.10;;;1.75;;
37997;SDS011;24079;51.824;4.682;2022-10-26T16:16:32;6.63;;;2.08;;
37997;SDS011;24079;51.824;4.682;2022-10-26T16:18:58;6.82;;;1.80;;
37997;SDS011;24079;51.824;4.682;2022-10-26T16:21:24;12.75;;;2.42;;
37997;SDS011;24079;51.824;4.682;2022-10-26T16:23:50;8.43;;;2.28;;
37997;SDS011;24079;51.824;4.682;2022-10-26T16:26:17;11.13;;;2.30;;
37997;SDS011;24079;51.824;4.682;2022-10-26T16:28:43;10.13;;;1.88;;
37997;SDS011;24079;51.824;4.682;2022-10-26T16:31:10;10.30;;;2.13;;
37997;SDS011;24079;51.824;4.682;2022-10-26T16:33:37;7.70;;;2.15;;
37997;SDS011;24079;51.824;4.682;2022-10-26T16:36:03;12.30;;;2.80;;
37997;SDS011;24079;51.824;4.682;2022-10-26T16:38:30;12.35;;;2.90;;
37997;SDS011;24079;51.824;4.682;2022-10-26T16:41:07;9.95;;;2.45;;
37997;SDS011;24079;51.824;4.682;2022-10-26T16:43:38;10.70;;;2.60;;
37997;SDS011;24079;51.824;4.682;2022-10-26T16:46:09;12.13;;;2.25;;
37997;SDS011;24079;51.824;4.682;2022-10-26T16:48:38;7.80;;;2.08;;
37997;SDS011;24079;51.824;4.682;2022-10-26T16:51:07;6.95;;;2.30;;
37997;SDS011;24079;51.824;4.682;2022-10-26T16:53:35;11.93;;;2.28;;
37997;SDS011;24079;51.824;4.682;2022-10-26T16:56:04;8.77;;;2.20;;
37997;SDS011;24079;51.824;4.682;2022-10-26T16:58:31;11.38;;;2.15;;
37997;SDS011;24079;51.824;4.682;2022-10-26T17:00:57;11.75;;;3.35;;